sensor_id;sensor_type;location;lat;lon;timestamp;P1;durP1;ratioP1;P2;durP2;ratioP2
18568;SDS011;14780;48.316;-1.050;2023-03-24T00:02:35;2.60;;;1.75;;
18568;SDS011;14780;48.316;-1.050;2023-03-24T00:05:24;1.95;;;1.15;;
18568;SDS011;14780;48.316;-1.050;2023-03-24T00:08:11;3.15;;;1.88;;
18568;SDS011;14780;48.316;-1.050;2023-03-24T00:10:59;4.65;;;1.70;;
18568;SDS011;14780;48.316;-1.050;2023-03-24T00:13:46;2.70;;;1.70;;
18568;SDS011;14780;48.316;-1.050;2023-03-24T00:16:32;2.25;;;1.58;;
18568;SDS011;14780;48.316;-1.050;2023-03-24T00:19:21;3.22;;;1.67;;
18568;SDS011;14780;48.316;-1.050;2023-03-24T00:22:06;3.00;;;1.70;;
18568;SDS011;14780;48.316;-1.050;2023-03-24T00:24:57;1.67;;;1.33;;
18568;SDS011;14780;48.316;-1.050;2023-03-24T00:27:41;5.53;;;1.80;;
18568;SDS011;14780;48.316;-1.050;2023-03-24T00:30:31;4.65;;;1.80;;
18568;SDS011;14780;48.316;-1.050;2023-03-24T00:33:17;1.90;;;1.50;;
18568;SDS011;14780;48.316;-1.050;2023-03-24T00:36:03;2.05;;;1.60;;
18568;SDS011;14780;48.316;-1.050;2023-03-24T00:38:50;2.97;;;1.60;;
18568;SDS011;14780;48.316;-1.050;2023-03-24T00:41:35;1.92;;;1.67;;
18568;SDS011;14780;48.316;-1.050;2023-03-24T00:44:20;2.78;;;1.70;;
18568;SDS011;14780;48.316;-1.050;2023-03-24T00:47:05;3.45;;;1.67;;
18568;SDS011;14780;48.316;-1.050;2023-03-24T00:49:50;1.80;;;1.48;;
18568;SDS011;14780;48.316;-1.050;2023-03-24T00:52:36;4.50;;;1.80;;
18568;SDS011;14780;48.316;-1.050;2023-03-24T00:55:26;3.10;;;1.70;;
18568;SDS011;14780;48.316;-1.050;2023-03-24T00:58:12;2.35;;;1.50;;
18568;SDS011;14780;48.316;-1.050;2023-03-24T01:01:02;1.87;;;1.60;;
18568;SDS011;14780;48.316;-1.050;2023-03-24T01:03:49;2.10;;;1.42;;
18568;SDS011;14780;48.316;-1.050;2023-03-24T01:06:37;3.05;;;1.65;;
18568;SDS011;14780;48.316;-1.050;2023-03-24T01:09:22;2.28;;;1.80;;
18568;SDS011;14780;48.316;-1.050;2023-03-24T01:12:07;2.88;;;1.63;;
18568;SDS011;14780;48.316;-1.050;2023-03-24T01:14:52;3.10;;;1.63;;
18568;SDS011;14780;48.316;-1.050;2023-03-24T01:17:37;3.15;;;1.90;;
18568;SDS011;14780;48.316;-1.050;2023-03-24T01:20:22;2.00;;;1.45;;
18568;SDS011;14780;48.316;-1.050;2023-03-24T01:23:07;2.15;;;1.60;;
18568;SDS011;14780;48.316;-1.050;2023-03-24T01:25:53;2.78;;;1.80;;
18568;SDS011;14780;48.316;-1.050;2023-03-24T01:28:38;3.35;;;1.60;;
18568;SDS011;14780;48.316;-1.050;2023-03-24T01:31:26;3.63;;;1.90;;
18568;SDS011;14780;48.316;-1.050;2023-03-24T01:34:11;2.67;;;1.60;;
18568;SDS011;14780;48.316;-1.050;2023-03-24T01:36:55;3.08;;;1.70;;
18568;SDS011;14780;48.316;-1.050;2023-03-24T01:39:40;4.13;;;1.88;;
18568;SDS011;14780;48.316;-1.050;2023-03-24T01:42:25;2.53;;;1.80;;
18568;SDS011;14780;48.316;-1.050;2023-03-24T01:48:36;2.80;;;1.85;;
18568;SDS011;14780;48.316;-1.050;2023-03-24T01:51:36;2.50;;;1.67;;
18568;SDS011;14780;48.316;-1.050;2023-03-24T01:54:29;3.63;;;1.88;;
18568;SDS011;14780;48.316;-1.050;2023-03-24T02:00:12;1.52;;;1.40;;
18568;SDS011;14780;48.316;-1.050;2023-03-24T02:03:02;3.15;;;1.70;;
18568;SDS011;14780;48.316;-1.050;2023-03-24T02:06:00;2.75;;;1.73;;
18568;SDS011;14780;48.316;-1.050;2023-03-24T02:08:48;3.75;;;1.83;;
18568;SDS011;14780;48.316;-1.050;2023-03-24T02:11:38;3.40;;;1.92;;
18568;SDS011;14780;48.316;-1.050;2023-03-24T02:14:23;2.75;;;1.75;;
18568;SDS011;14780;48.316;-1.050;2023-03-24T02:25:58;2.42;;;1.52;;
18568;SDS011;14780;48.316;-1.050;2023-03-24T02:29:01;3.15;;;1.83;;
18568;SDS011;14780;48.316;-1.050;2023-03-24T02:35:25;3.00;;;1.67;;
18568;SDS011;14780;48.316;-1.050;2023-03-24T02:44:57;3.30;;;1.95;;
18568;SDS011;14780;48.316;-1.050;2023-03-24T02:59:40;3.10;;;1.92;;
18568;SDS011;14780;48.316;-1.050;2023-03-24T03:02:32;2.17;;;1.52;;
18568;SDS011;14780;48.316;-1.050;2023-03-24T03:05:26;2.83;;;1.92;;
18568;SDS011;14780;48.316;-1.050;2023-03-24T03:08:16;2.47;;;1.55;;
18568;SDS011;14780;48.316;-1.050;2023-03-24T03:11:05;2.60;;;1.90;;
18568;SDS011;14780;48.316;-1.050;2023-03-24T03:14:00;2.57;;;1.70;;
18568;SDS011;14780;48.316;-1.050;2023-03-24T03:16:53;2.80;;;1.85;;
18568;SDS011;14780;48.316;-1.050;2023-03-24T03:19:48;2.88;;;1.70;;
18568;SDS011;14780;48.316;-1.050;2023-03-24T03:22:41;4.65;;;2.10;;
18568;SDS011;14780;48.316;-1.050;2023-03-24T03:25:40;3.65;;;1.88;;
18568;SDS011;14780;48.316;-1.050;2023-03-24T03:28:34;5.75;;;2.10;;
18568;SDS011;14780;48.316;-1.050;2023-03-24T03:31:24;4.60;;;2.10;;
18568;SDS011;14780;48.316;-1.050;2023-03-24T03:37:32;3.35;;;1.90;;
18568;SDS011;14780;48.316;-1.050;2023-03-24T03:40:46;3.17;;;1.85;;
18568;SDS011;14780;48.316;-1.050;2023-03-24T03:43:37;3.00;;;1.50;;
18568;SDS011;14780;48.316;-1.050;2023-03-24T03:46:21;3.38;;;1.80;;
18568;SDS011;14780;48.316;-1.050;2023-03-24T03:49:10;5.90;;;2.30;;
18568;SDS011;14780;48.316;-1.050;2023-03-24T03:51:55;3.13;;;1.88;;
18568;SDS011;14780;48.316;-1.050;2023-03-24T03:54:40;4.82;;;2.22;;
18568;SDS011;14780;48.316;-1.050;2023-03-24T03:57:27;3.95;;;2.05;;
18568;SDS011;14780;48.316;-1.050;2023-03-24T04:00:16;4.75;;;2.10;;
18568;SDS011;14780;48.316;-1.050;2023-03-24T04:06:04;3.80;;;1.83;;
18568;SDS011;14780;48.316;-1.050;2023-03-24T04:21:24;4.25;;;2.15;;
18568;SDS011;14780;48.316;-1.050;2023-03-24T04:27:45;5.50;;;2.30;;
18568;SDS011;14780;48.316;-1.050;2023-03-24T04:30:45;3.33;;;1.60;;
18568;SDS011;14780;48.316;-1.050;2023-03-24T04:33:45;4.05;;;2.10;;
18568;SDS011;14780;48.316;-1.050;2023-03-24T04:36:41;3.95;;;2.00;;
18568;SDS011;14780;48.316;-1.050;2023-03-24T04:39:34;2.78;;;1.80;;
18568;SDS011;14780;48.316;-1.050;2023-03-24T04:42:31;4.30;;;2.22;;
18568;SDS011;14780;48.316;-1.050;2023-03-24T04:45:20;5.03;;;2.00;;
18568;SDS011;14780;48.316;-1.050;2023-03-24T04:48:08;3.55;;;2.10;;
18568;SDS011;14780;48.316;-1.050;2023-03-24T04:50:55;3.83;;;2.10;;
18568;SDS011;14780;48.316;-1.050;2023-03-24T04:53:44;4.75;;;2.00;;
18568;SDS011;14780;48.316;-1.050;2023-03-24T04:56:37;5.38;;;2.50;;
18568;SDS011;14780;48.316;-1.050;2023-03-24T04:59:30;5.95;;;2.60;;
18568;SDS011;14780;48.316;-1.050;2023-03-24T05:02:16;4.78;;;2.22;;
18568;SDS011;14780;48.316;-1.050;2023-03-24T05:05:01;4.13;;;2.20;;
18568;SDS011;14780;48.316;-1.050;2023-03-24T05:07:46;3.47;;;2.00;;
18568;SDS011;14780;48.316;-1.050;2023-03-24T05:10:32;5.28;;;2.33;;
18568;SDS011;14780;48.316;-1.050;2023-03-24T05:13:17;6.18;;;2.30;;
18568;SDS011;14780;48.316;-1.050;2023-03-24T05:16:02;5.43;;;2.35;;
18568;SDS011;14780;48.316;-1.050;2023-03-24T05:18:47;3.72;;;2.00;;
18568;SDS011;14780;48.316;-1.050;2023-03-24T05:21:32;7.22;;;2.75;;
18568;SDS011;14780;48.316;-1.050;2023-03-24T05:24:17;5.43;;;2.60;;
18568;SDS011;14780;48.316;-1.050;2023-03-24T05:27:02;4.80;;;2.53;;
18568;SDS011;14780;48.316;-1.050;2023-03-24T05:29:47;6.85;;;2.40;;
18568;SDS011;14780;48.316;-1.050;2023-03-24T05:32:31;4.28;;;2.03;;
18568;SDS011;14780;48.316;-1.050;2023-03-24T05:35:16;5.63;;;2.25;;
18568;SDS011;14780;48.316;-1.050;2023-03-24T05:38:01;4.53;;;2.10;;
18568;SDS011;14780;48.316;-1.050;2023-03-24T05:40:45;5.07;;;2.22;;
18568;SDS011;14780;48.316;-1.050;2023-03-24T05:43:30;5.00;;;2.40;;
18568;SDS011;14780;48.316;-1.050;2023-03-24T05:46:15;4.75;;;2.40;;
18568;SDS011;14780;48.316;-1.050;2023-03-24T05:49:00;3.78;;;2.13;;
18568;SDS011;14780;48.316;-1.050;2023-03-24T05:51:44;4.65;;;2.33;;
18568;SDS011;14780;48.316;-1.050;2023-03-24T05:54:29;4.88;;;2.17;;
18568;SDS011;14780;48.316;-1.050;2023-03-24T05:57:17;3.55;;;2.20;;
18568;SDS011;14780;48.316;-1.050;2023-03-24T06:00:04;4.47;;;2.50;;
18568;SDS011;14780;48.316;-1.050;2023-03-24T06:02:53;5.35;;;2.70;;
18568;SDS011;14780;48.316;-1.050;2023-03-24T06:05:38;4.00;;;2.20;;
18568;SDS011;14780;48.316;-1.050;2023-03-24T06:08:22;5.47;;;2.65;;
18568;SDS011;14780;48.316;-1.050;2023-03-24T06:11:11;6.45;;;2.58;;
18568;SDS011;14780;48.316;-1.050;2023-03-24T06:13:55;5.07;;;2.22;;
18568;SDS011;14780;48.316;-1.050;2023-03-24T06:16:42;4.55;;;2.00;;
18568;SDS011;14780;48.316;-1.050;2023-03-24T06:19:27;4.65;;;2.30;;
18568;SDS011;14780;48.316;-1.050;2023-03-24T06:22:16;4.47;;;2.33;;
18568;SDS011;14780;48.316;-1.050;2023-03-24T06:25:02;6.90;;;2.83;;
18568;SDS011;14780;48.316;-1.050;2023-03-24T06:27:47;5.18;;;2.72;;
18568;SDS011;14780;48.316;-1.050;2023-03-24T06:30:32;5.63;;;2.40;;
18568;SDS011;14780;48.316;-1.050;2023-03-24T06:33:16;7.32;;;2.75;;
18568;SDS011;14780;48.316;-1.050;2023-03-24T06:36:01;4.95;;;2.53;;
18568;SDS011;14780;48.316;-1.050;2023-03-24T06:38:46;7.07;;;2.42;;
18568;SDS011;14780;48.316;-1.050;2023-03-24T06:41:31;6.72;;;2.78;;
18568;SDS011;14780;48.316;-1.050;2023-03-24T06:44:17;5.93;;;2.38;;
18568;SDS011;14780;48.316;-1.050;2023-03-24T06:47:01;4.35;;;2.22;;
18568;SDS011;14780;48.316;-1.050;2023-03-24T06:49:46;4.38;;;2.83;;
18568;SDS011;14780;48.316;-1.050;2023-03-24T06:52:32;6.38;;;2.30;;
18568;SDS011;14780;48.316;-1.050;2023-03-24T06:55:17;6.65;;;2.75;;
18568;SDS011;14780;48.316;-1.050;2023-03-24T06:58:02;6.25;;;2.38;;
18568;SDS011;14780;48.316;-1.050;2023-03-24T07:00:47;5.65;;;2.63;;
18568;SDS011;14780;48.316;-1.050;2023-03-24T07:03:33;4.75;;;2.30;;
18568;SDS011;14780;48.316;-1.050;2023-03-24T07:06:18;6.55;;;2.55;;
18568;SDS011;14780;48.316;-1.050;2023-03-24T07:09:05;6.13;;;2.45;;
18568;SDS011;14780;48.316;-1.050;2023-03-24T07:11:50;5.10;;;2.50;;
18568;SDS011;14780;48.316;-1.050;2023-03-24T07:14:35;6.70;;;2.67;;
18568;SDS011;14780;48.316;-1.050;2023-03-24T07:17:19;8.07;;;2.38;;
18568;SDS011;14780;48.316;-1.050;2023-03-24T07:20:05;7.05;;;2.78;;
18568;SDS011;14780;48.316;-1.050;2023-03-24T07:22:54;5.50;;;2.85;;
18568;SDS011;14780;48.316;-1.050;2023-03-24T07:25:40;4.85;;;2.42;;
18568;SDS011;14780;48.316;-1.050;2023-03-24T07:28:25;4.53;;;2.55;;
18568;SDS011;14780;48.316;-1.050;2023-03-24T07:31:10;6.05;;;2.50;;
18568;SDS011;14780;48.316;-1.050;2023-03-24T07:33:54;5.90;;;2.72;;
18568;SDS011;14780;48.316;-1.050;2023-03-24T07:36:39;6.68;;;3.30;;
18568;SDS011;14780;48.316;-1.050;2023-03-24T07:39:24;7.97;;;3.10;;
18568;SDS011;14780;48.316;-1.050;2023-03-24T07:42:08;8.48;;;2.58;;
18568;SDS011;14780;48.316;-1.050;2023-03-24T07:44:53;7.80;;;2.92;;
18568;SDS011;14780;48.316;-1.050;2023-03-24T07:47:38;5.88;;;2.70;;
18568;SDS011;14780;48.316;-1.050;2023-03-24T07:50:25;8.27;;;2.72;;
18568;SDS011;14780;48.316;-1.050;2023-03-24T07:53:11;6.93;;;3.08;;
18568;SDS011;14780;48.316;-1.050;2023-03-24T07:56:01;6.88;;;3.17;;
18568;SDS011;14780;48.316;-1.050;2023-03-24T07:58:46;8.50;;;3.28;;
18568;SDS011;14780;48.316;-1.050;2023-03-24T08:01:30;5.63;;;2.50;;
18568;SDS011;14780;48.316;-1.050;2023-03-24T08:04:15;6.72;;;3.22;;
18568;SDS011;14780;48.316;-1.050;2023-03-24T08:07:00;6.55;;;2.80;;
18568;SDS011;14780;48.316;-1.050;2023-03-24T08:09:44;9.00;;;3.00;;
18568;SDS011;14780;48.316;-1.050;2023-03-24T08:12:29;6.97;;;2.88;;
18568;SDS011;14780;48.316;-1.050;2023-03-24T08:15:13;8.40;;;3.13;;
18568;SDS011;14780;48.316;-1.050;2023-03-24T08:17:58;6.63;;;2.70;;
18568;SDS011;14780;48.316;-1.050;2023-03-24T08:20:43;5.85;;;2.88;;
18568;SDS011;14780;48.316;-1.050;2023-03-24T08:23:28;7.03;;;2.83;;
18568;SDS011;14780;48.316;-1.050;2023-03-24T08:26:14;6.32;;;2.63;;
18568;SDS011;14780;48.316;-1.050;2023-03-24T08:28:58;5.65;;;2.92;;
18568;SDS011;14780;48.316;-1.050;2023-03-24T08:31:43;6.70;;;2.90;;
18568;SDS011;14780;48.316;-1.050;2023-03-24T08:34:28;6.10;;;2.90;;
18568;SDS011;14780;48.316;-1.050;2023-03-24T08:37:13;6.00;;;2.78;;
18568;SDS011;14780;48.316;-1.050;2023-03-24T08:39:57;4.70;;;2.50;;
18568;SDS011;14780;48.316;-1.050;2023-03-24T08:42:52;6.38;;;2.42;;
18568;SDS011;14780;48.316;-1.050;2023-03-24T08:45:39;7.20;;;3.13;;
18568;SDS011;14780;48.316;-1.050;2023-03-24T08:48:24;6.65;;;2.70;;
18568;SDS011;14780;48.316;-1.050;2023-03-24T08:51:11;7.70;;;3.17;;
18568;SDS011;14780;48.316;-1.050;2023-03-24T08:53:57;6.97;;;2.58;;
18568;SDS011;14780;48.316;-1.050;2023-03-24T08:56:44;4.75;;;2.22;;
18568;SDS011;14780;48.316;-1.050;2023-03-24T08:59:28;3.92;;;2.35;;
18568;SDS011;14780;48.316;-1.050;2023-03-24T09:02:13;4.03;;;2.47;;
18568;SDS011;14780;48.316;-1.050;2023-03-24T09:04:58;4.45;;;2.35;;
18568;SDS011;14780;48.316;-1.050;2023-03-24T09:07:42;4.45;;;2.50;;
18568;SDS011;14780;48.316;-1.050;2023-03-24T09:10:28;6.03;;;2.70;;
18568;SDS011;14780;48.316;-1.050;2023-03-24T09:13:13;5.95;;;2.90;;
18568;SDS011;14780;48.316;-1.050;2023-03-24T09:16:00;6.28;;;3.20;;
18568;SDS011;14780;48.316;-1.050;2023-03-24T09:18:46;4.95;;;2.70;;
18568;SDS011;14780;48.316;-1.050;2023-03-24T09:21:30;6.38;;;2.75;;
18568;SDS011;14780;48.316;-1.050;2023-03-24T09:24:15;6.95;;;3.20;;
18568;SDS011;14780;48.316;-1.050;2023-03-24T09:27:00;8.23;;;2.90;;
18568;SDS011;14780;48.316;-1.050;2023-03-24T09:29:45;9.38;;;3.88;;
18568;SDS011;14780;48.316;-1.050;2023-03-24T09:32:31;10.20;;;3.75;;
18568;SDS011;14780;48.316;-1.050;2023-03-24T09:35:16;12.55;;;4.00;;
18568;SDS011;14780;48.316;-1.050;2023-03-24T09:38:01;9.98;;;3.95;;
18568;SDS011;14780;48.316;-1.050;2023-03-24T09:40:46;14.43;;;4.13;;
18568;SDS011;14780;48.316;-1.050;2023-03-24T09:43:39;13.77;;;4.40;;
18568;SDS011;14780;48.316;-1.050;2023-03-24T09:46:46;11.82;;;4.22;;
18568;SDS011;14780;48.316;-1.050;2023-03-24T09:49:36;11.07;;;3.78;;
18568;SDS011;14780;48.316;-1.050;2023-03-24T09:52:32;12.98;;;4.50;;
18568;SDS011;14780;48.316;-1.050;2023-03-24T09:55:27;10.48;;;3.75;;
18568;SDS011;14780;48.316;-1.050;2023-03-24T09:58:11;10.57;;;4.22;;
18568;SDS011;14780;48.316;-1.050;2023-03-24T10:00:56;14.02;;;4.07;;
18568;SDS011;14780;48.316;-1.050;2023-03-24T10:03:42;13.07;;;4.25;;
18568;SDS011;14780;48.316;-1.050;2023-03-24T10:06:29;12.00;;;4.53;;
18568;SDS011;14780;48.316;-1.050;2023-03-24T10:24:36;9.48;;;3.60;;
18568;SDS011;14780;48.316;-1.050;2023-03-24T10:30:14;8.93;;;3.72;;
18568;SDS011;14780;48.316;-1.050;2023-03-24T10:33:05;11.20;;;4.10;;
18568;SDS011;14780;48.316;-1.050;2023-03-24T10:35:57;9.75;;;3.90;;
18568;SDS011;14780;48.316;-1.050;2023-03-24T10:38:50;9.75;;;4.00;;
18568;SDS011;14780;48.316;-1.050;2023-03-24T10:41:36;11.05;;;4.03;;
18568;SDS011;14780;48.316;-1.050;2023-03-24T10:44:22;8.85;;;3.45;;
18568;SDS011;14780;48.316;-1.050;2023-03-24T10:47:08;10.25;;;3.50;;
18568;SDS011;14780;48.316;-1.050;2023-03-24T10:49:57;9.73;;;3.88;;
18568;SDS011;14780;48.316;-1.050;2023-03-24T10:52:45;8.38;;;3.30;;
18568;SDS011;14780;48.316;-1.050;2023-03-24T10:55:36;9.00;;;3.60;;
18568;SDS011;14780;48.316;-1.050;2023-03-24T11:01:21;8.73;;;3.50;;
18568;SDS011;14780;48.316;-1.050;2023-03-24T11:04:14;9.55;;;3.60;;
18568;SDS011;14780;48.316;-1.050;2023-03-24T11:07:02;8.25;;;3.35;;
18568;SDS011;14780;48.316;-1.050;2023-03-24T11:15:37;10.35;;;3.33;;
18568;SDS011;14780;48.316;-1.050;2023-03-24T11:18:37;10.35;;;3.28;;
18568;SDS011;14780;48.316;-1.050;2023-03-24T11:21:37;8.95;;;3.55;;
18568;SDS011;14780;48.316;-1.050;2023-03-24T11:24:25;9.30;;;3.50;;
18568;SDS011;14780;48.316;-1.050;2023-03-24T11:27:12;7.47;;;2.97;;
18568;SDS011;14780;48.316;-1.050;2023-03-24T11:29:59;9.27;;;3.63;;
18568;SDS011;14780;48.316;-1.050;2023-03-24T11:32:44;7.97;;;3.28;;
18568;SDS011;14780;48.316;-1.050;2023-03-24T11:35:30;9.13;;;3.38;;
18568;SDS011;14780;48.316;-1.050;2023-03-24T11:38:27;8.10;;;3.40;;
18568;SDS011;14780;48.316;-1.050;2023-03-24T11:41:14;7.95;;;2.90;;
18568;SDS011;14780;48.316;-1.050;2023-03-24T11:44:21;7.25;;;2.83;;
18568;SDS011;14780;48.316;-1.050;2023-03-24T11:50:19;6.63;;;3.13;;
18568;SDS011;14780;48.316;-1.050;2023-03-24T11:53:23;6.50;;;2.80;;
18568;SDS011;14780;48.316;-1.050;2023-03-24T11:56:41;7.18;;;2.95;;
18568;SDS011;14780;48.316;-1.050;2023-03-24T12:05:52;7.68;;;3.25;;
18568;SDS011;14780;48.316;-1.050;2023-03-24T12:08:59;6.73;;;2.87;;
18568;SDS011;14780;48.316;-1.050;2023-03-24T12:12:04;7.13;;;2.83;;
18568;SDS011;14780;48.316;-1.050;2023-03-24T12:24:39;7.85;;;3.10;;
18568;SDS011;14780;48.316;-1.050;2023-03-24T12:39:17;6.45;;;2.45;;
18568;SDS011;14780;48.316;-1.050;2023-03-24T12:42:12;6.70;;;2.70;;
18568;SDS011;14780;48.316;-1.050;2023-03-24T12:45:03;7.00;;;2.80;;
18568;SDS011;14780;48.316;-1.050;2023-03-24T12:48:00;7.30;;;2.30;;
18568;SDS011;14780;48.316;-1.050;2023-03-24T12:53:57;6.75;;;2.90;;
18568;SDS011;14780;48.316;-1.050;2023-03-24T12:56:59;4.75;;;2.20;;
18568;SDS011;14780;48.316;-1.050;2023-03-24T12:59:56;6.22;;;2.45;;
18568;SDS011;14780;48.316;-1.050;2023-03-24T13:02:50;5.95;;;2.63;;
18568;SDS011;14780;48.316;-1.050;2023-03-24T13:05:49;6.85;;;2.67;;
18568;SDS011;14780;48.316;-1.050;2023-03-24T13:08:36;5.22;;;2.45;;
18568;SDS011;14780;48.316;-1.050;2023-03-24T13:11:26;7.55;;;2.67;;
18568;SDS011;14780;48.316;-1.050;2023-03-24T13:14:21;5.40;;;2.50;;
18568;SDS011;14780;48.316;-1.050;2023-03-24T13:17:16;6.72;;;2.65;;
18568;SDS011;14780;48.316;-1.050;2023-03-24T13:20:18;4.45;;;2.15;;
18568;SDS011;14780;48.316;-1.050;2023-03-24T13:26:53;29.45;;;8.55;;
18568;SDS011;14780;48.316;-1.050;2023-03-24T13:32:48;14.90;;;5.27;;
18568;SDS011;14780;48.316;-1.050;2023-03-24T13:38:52;17.95;;;6.38;;
18568;SDS011;14780;48.316;-1.050;2023-03-24T13:41:40;17.48;;;6.20;;
18568;SDS011;14780;48.316;-1.050;2023-03-24T13:44:36;16.92;;;6.07;;
18568;SDS011;14780;48.316;-1.050;2023-03-24T13:47:25;15.43;;;5.35;;
18568;SDS011;14780;48.316;-1.050;2023-03-24T13:50:30;14.52;;;5.63;;
18568;SDS011;14780;48.316;-1.050;2023-03-24T13:53:16;17.05;;;5.03;;
18568;SDS011;14780;48.316;-1.050;2023-03-24T13:56:07;14.38;;;5.22;;
18568;SDS011;14780;48.316;-1.050;2023-03-24T14:01:45;14.82;;;5.60;;
18568;SDS011;14780;48.316;-1.050;2023-03-24T14:05:10;16.42;;;4.70;;
18568;SDS011;14780;48.316;-1.050;2023-03-24T14:10:49;11.77;;;5.45;;
18568;SDS011;14780;48.316;-1.050;2023-03-24T14:13:35;9.43;;;4.80;;
18568;SDS011;14780;48.316;-1.050;2023-03-24T14:19:26;11.77;;;4.93;;
18568;SDS011;14780;48.316;-1.050;2023-03-24T14:22:23;12.00;;;5.03;;
18568;SDS011;14780;48.316;-1.050;2023-03-24T14:28:19;7.15;;;3.63;;
18568;SDS011;14780;48.316;-1.050;2023-03-24T14:31:08;9.23;;;3.80;;
18568;SDS011;14780;48.316;-1.050;2023-03-24T14:34:07;11.52;;;3.75;;
18568;SDS011;14780;48.316;-1.050;2023-03-24T14:37:03;6.90;;;3.47;;
18568;SDS011;14780;48.316;-1.050;2023-03-24T14:39:53;8.30;;;3.78;;
18568;SDS011;14780;48.316;-1.050;2023-03-24T14:54:39;7.47;;;3.47;;
18568;SDS011;14780;48.316;-1.050;2023-03-24T14:57:33;7.72;;;3.08;;
18568;SDS011;14780;48.316;-1.050;2023-03-24T15:00:39;5.28;;;2.90;;
18568;SDS011;14780;48.316;-1.050;2023-03-24T15:03:31;7.75;;;3.22;;
18568;SDS011;14780;48.316;-1.050;2023-03-24T15:09:07;6.53;;;2.78;;
18568;SDS011;14780;48.316;-1.050;2023-03-24T15:11:53;6.88;;;2.67;;
18568;SDS011;14780;48.316;-1.050;2023-03-24T15:14:41;6.78;;;2.65;;
18568;SDS011;14780;48.316;-1.050;2023-03-24T15:17:27;5.13;;;2.75;;
18568;SDS011;14780;48.316;-1.050;2023-03-24T15:20:22;6.10;;;2.60;;
18568;SDS011;14780;48.316;-1.050;2023-03-24T15:23:10;5.15;;;2.15;;
18568;SDS011;14780;48.316;-1.050;2023-03-24T15:26:01;4.68;;;2.35;;
18568;SDS011;14780;48.316;-1.050;2023-03-24T15:29:04;6.30;;;2.92;;
18568;SDS011;14780;48.316;-1.050;2023-03-24T15:31:50;6.03;;;2.72;;
18568;SDS011;14780;48.316;-1.050;2023-03-24T15:34:35;6.28;;;2.35;;
18568;SDS011;14780;48.316;-1.050;2023-03-24T15:40:38;4.45;;;2.40;;
18568;SDS011;14780;48.316;-1.050;2023-03-24T15:43:23;5.38;;;2.20;;
18568;SDS011;14780;48.316;-1.050;2023-03-24T15:46:18;6.43;;;2.33;;
18568;SDS011;14780;48.316;-1.050;2023-03-24T15:49:19;6.32;;;2.20;;
18568;SDS011;14780;48.316;-1.050;2023-03-24T15:52:23;4.95;;;2.10;;
18568;SDS011;14780;48.316;-1.050;2023-03-24T15:58:26;4.35;;;2.15;;
18568;SDS011;14780;48.316;-1.050;2023-03-24T16:01:16;5.10;;;2.42;;
18568;SDS011;14780;48.316;-1.050;2023-03-24T16:04:04;4.13;;;2.45;;
18568;SDS011;14780;48.316;-1.050;2023-03-24T16:07:00;3.40;;;1.98;;
18568;SDS011;14780;48.316;-1.050;2023-03-24T16:09:44;3.83;;;2.45;;
18568;SDS011;14780;48.316;-1.050;2023-03-24T16:12:48;3.85;;;2.13;;
18568;SDS011;14780;48.316;-1.050;2023-03-24T16:15:33;5.40;;;2.10;;
18568;SDS011;14780;48.316;-1.050;2023-03-24T16:18:40;4.88;;;2.35;;
18568;SDS011;14780;48.316;-1.050;2023-03-24T16:21:25;4.35;;;2.00;;
18568;SDS011;14780;48.316;-1.050;2023-03-24T16:24:11;2.97;;;1.83;;
18568;SDS011;14780;48.316;-1.050;2023-03-24T16:26:56;3.60;;;2.00;;
18568;SDS011;14780;48.316;-1.050;2023-03-24T16:29:41;4.85;;;2.10;;
18568;SDS011;14780;48.316;-1.050;2023-03-24T16:32:26;3.33;;;1.83;;
18568;SDS011;14780;48.316;-1.050;2023-03-24T16:35:10;3.85;;;2.10;;
18568;SDS011;14780;48.316;-1.050;2023-03-24T16:37:55;2.83;;;1.88;;
18568;SDS011;14780;48.316;-1.050;2023-03-24T16:40:40;5.22;;;2.25;;
18568;SDS011;14780;48.316;-1.050;2023-03-24T16:43:34;4.70;;;1.83;;
18568;SDS011;14780;48.316;-1.050;2023-03-24T16:49:11;4.73;;;1.93;;
18568;SDS011;14780;48.316;-1.050;2023-03-24T16:51:58;4.18;;;2.15;;
18568;SDS011;14780;48.316;-1.050;2023-03-24T16:54:42;4.35;;;2.08;;
18568;SDS011;14780;48.316;-1.050;2023-03-24T16:57:27;2.17;;;1.85;;
18568;SDS011;14780;48.316;-1.050;2023-03-24T17:00:12;4.63;;;1.90;;
18568;SDS011;14780;48.316;-1.050;2023-03-24T17:02:57;2.97;;;1.80;;
18568;SDS011;14780;48.316;-1.050;2023-03-24T17:05:46;4.00;;;2.00;;
18568;SDS011;14780;48.316;-1.050;2023-03-24T17:08:33;3.42;;;1.90;;
18568;SDS011;14780;48.316;-1.050;2023-03-24T17:11:28;4.82;;;1.83;;
18568;SDS011;14780;48.316;-1.050;2023-03-24T17:14:18;3.03;;;1.70;;
18568;SDS011;14780;48.316;-1.050;2023-03-24T17:17:04;3.92;;;2.03;;
18568;SDS011;14780;48.316;-1.050;2023-03-24T17:19:53;2.53;;;1.70;;
18568;SDS011;14780;48.316;-1.050;2023-03-24T17:22:40;5.53;;;2.15;;
18568;SDS011;14780;48.316;-1.050;2023-03-24T17:25:26;3.05;;;1.80;;
18568;SDS011;14780;48.316;-1.050;2023-03-24T17:28:15;4.68;;;2.22;;
18568;SDS011;14780;48.316;-1.050;2023-03-24T17:31:00;4.68;;;1.88;;
18568;SDS011;14780;48.316;-1.050;2023-03-24T17:33:45;3.88;;;1.90;;
18568;SDS011;14780;48.316;-1.050;2023-03-24T17:36:30;3.42;;;1.90;;
18568;SDS011;14780;48.316;-1.050;2023-03-24T17:39:15;3.22;;;1.50;;
18568;SDS011;14780;48.316;-1.050;2023-03-24T17:42:01;3.17;;;2.00;;
18568;SDS011;14780;48.316;-1.050;2023-03-24T17:44:46;2.50;;;1.83;;
18568;SDS011;14780;48.316;-1.050;2023-03-24T17:47:32;4.10;;;1.80;;
18568;SDS011;14780;48.316;-1.050;2023-03-24T17:50:17;3.10;;;1.77;;
18568;SDS011;14780;48.316;-1.050;2023-03-24T17:53:01;3.05;;;1.60;;
18568;SDS011;14780;48.316;-1.050;2023-03-24T17:55:46;3.25;;;1.73;;
18568;SDS011;14780;48.316;-1.050;2023-03-24T17:58:33;3.53;;;1.77;;
18568;SDS011;14780;48.316;-1.050;2023-03-24T18:01:19;3.30;;;1.77;;
18568;SDS011;14780;48.316;-1.050;2023-03-24T18:04:03;2.88;;;1.65;;
18568;SDS011;14780;48.316;-1.050;2023-03-24T18:06:49;4.65;;;2.00;;
18568;SDS011;14780;48.316;-1.050;2023-03-24T18:09:33;2.35;;;1.70;;
18568;SDS011;14780;48.316;-1.050;2023-03-24T18:12:19;3.08;;;1.65;;
18568;SDS011;14780;48.316;-1.050;2023-03-24T18:15:05;3.10;;;1.92;;
18568;SDS011;14780;48.316;-1.050;2023-03-24T18:17:50;3.20;;;1.75;;
18568;SDS011;14780;48.316;-1.050;2023-03-24T18:20:35;3.35;;;1.80;;
18568;SDS011;14780;48.316;-1.050;2023-03-24T18:23:21;2.03;;;1.40;;
18568;SDS011;14780;48.316;-1.050;2023-03-24T18:26:06;3.22;;;1.63;;
18568;SDS011;14780;48.316;-1.050;2023-03-24T18:28:52;2.60;;;1.50;;
18568;SDS011;14780;48.316;-1.050;2023-03-24T18:31:36;4.22;;;1.77;;
18568;SDS011;14780;48.316;-1.050;2023-03-24T18:34:21;3.10;;;2.15;;
18568;SDS011;14780;48.316;-1.050;2023-03-24T18:37:06;2.40;;;1.55;;
18568;SDS011;14780;48.316;-1.050;2023-03-24T18:39:51;2.90;;;1.70;;
18568;SDS011;14780;48.316;-1.050;2023-03-24T18:42:36;4.28;;;1.80;;
18568;SDS011;14780;48.316;-1.050;2023-03-24T18:45:21;4.47;;;1.80;;
18568;SDS011;14780;48.316;-1.050;2023-03-24T18:48:06;3.47;;;1.98;;
18568;SDS011;14780;48.316;-1.050;2023-03-24T18:50:51;7.65;;;1.80;;
18568;SDS011;14780;48.316;-1.050;2023-03-24T18:53:36;2.50;;;1.77;;
18568;SDS011;14780;48.316;-1.050;2023-03-24T18:56:21;10.30;;;4.32;;
18568;SDS011;14780;48.316;-1.050;2023-03-24T18:59:07;17.42;;;7.38;;
18568;SDS011;14780;48.316;-1.050;2023-03-24T19:01:54;14.75;;;7.60;;
18568;SDS011;14780;48.316;-1.050;2023-03-24T19:04:38;14.90;;;7.53;;
18568;SDS011;14780;48.316;-1.050;2023-03-24T19:07:25;16.35;;;8.13;;
18568;SDS011;14780;48.316;-1.050;2023-03-24T19:10:10;17.25;;;8.50;;
18568;SDS011;14780;48.316;-1.050;2023-03-24T19:12:55;18.77;;;7.35;;
18568;SDS011;14780;48.316;-1.050;2023-03-24T19:15:40;19.70;;;7.57;;
18568;SDS011;14780;48.316;-1.050;2023-03-24T19:18:28;13.95;;;6.72;;
18568;SDS011;14780;48.316;-1.050;2023-03-24T19:21:13;11.70;;;6.13;;
18568;SDS011;14780;48.316;-1.050;2023-03-24T19:23:58;14.63;;;6.93;;
18568;SDS011;14780;48.316;-1.050;2023-03-24T19:26:43;13.13;;;6.43;;